Time;durP1;ratioP1;P1;durP2;ratioP2;P2;SDS_P1;SDS_P2;PMS_P1;PMS_P2;Temp;Humidity;BMP_temperature;BMP_pressure;BME280_temperature;BME280_humidity;BME280_pressure;Samples;Min_cycle;Max_cycle;Signal;HPM_P1;HPM_P2
2023/04/15 00:01:05;;;;;;;4.95;4.20;;;;;;;10.30;56.16;99172.06;4991228;28;20357;-81
2023/04/15 00:03:33;;;;;;;6.97;4.22;;;;;;;10.30;55.68;99169.44;4990202;28;20152;-81
2023/04/15 00:06:00;;;;;;;4.90;4.13;;;;;;;10.29;56.03;99170.34;4989876;28;20090;-80
2023/04/15 00:08:27;;;;;;;5.22;3.88;;;;;;;10.28;56.15;99168.69;4990747;28;20108;-81
2023/04/15 00:10:54;;;;;;;5.90;4.50;;;;;;;10.27;56.16;99158.25;4990974;28;20509;-81
2023/04/15 00:13:20;;;;;;;6.75;4.88;;;;;;;10.25;56.08;99168.88;4991086;28;20057;-81
2023/04/15 00:15:46;;;;;;;6.15;4.60;;;;;;;10.23;56.18;99165.50;4990851;28;20414;-81
2023/04/15 00:18:13;;;;;;;5.55;4.60;;;;;;;10.23;56.31;99164.66;4989418;28;20081;-81
2023/04/15 00:20:40;;;;;;;7.35;4.53;;;;;;;10.20;56.12;99155.19;4991007;28;20066;-81
2023/04/15 00:23:06;;;;;;;4.95;4.45;;;;;;;10.21;56.07;99161.28;4991081;28;20069;-81
2023/04/15 00:25:33;;;;;;;4.53;3.97;;;;;;;10.19;56.45;99166.66;4989373;28;20597;-81
2023/04/15 00:27:59;;;;;;;5.00;4.07;;;;;;;10.17;56.51;99160.66;4990408;28;20113;-81
2023/04/15 00:30:26;;;;;;;4.00;3.33;;;;;;;10.17;56.27;99163.28;4990680;28;20547;-81
2023/04/15 00:32:52;;;;;;;6.25;3.75;;;;;;;10.14;56.37;99159.03;4991079;28;20054;-81
2023/04/15 00:35:19;;;;;;;6.53;4.35;;;;;;;10.12;56.53;99160.94;4990576;28;20058;-81
2023/04/15 00:37:45;;;;;;;5.07;4.07;;;;;;;10.10;56.70;99154.09;4990270;28;20537;-81
2023/04/15 00:40:12;;;;;;;5.30;4.25;;;;;;;10.06;56.91;99148.22;4990324;28;20089;-81
2023/04/15 00:42:39;;;;;;;4.90;4.10;;;;;;;10.05;56.80;99146.50;4990520;28;20493;-81
2023/04/15 00:45:07;;;;;;;6.65;4.30;;;;;;;10.03;56.68;99146.59;4990526;28;20054;-81
2023/04/15 00:47:36;;;;;;;7.60;4.40;;;;;;;10.01;56.96;99145.88;4990246;28;20061;-81
2023/04/15 00:50:03;;;;;;;4.25;3.83;;;;;;;10.00;56.83;99148.59;4990445;28;20061;-81
2023/04/15 00:52:30;;;;;;;8.70;4.15;;;;;;;9.97;56.82;99152.25;4990672;28;20054;-81
2023/04/15 00:54:57;;;;;;;5.18;4.15;;;;;;;9.97;56.87;99151.41;4972644;28;20097;-81
2023/04/15 00:57:25;;;;;;;6.53;4.25;;;;;;;9.95;57.11;99156.78;4989387;28;22228;-80
2023/04/15 00:59:53;;;;;;;4.60;3.78;;;;;;;9.92;57.08;99151.72;4990361;28;20511;-81
2023/04/15 01:02:19;;;;;;;10.13;4.60;;;;;;;9.90;57.32;99156.22;4990282;28;20069;-81
2023/04/15 01:04:46;;;;;;;6.18;4.00;;;;;;;9.85;57.22;99151.28;4990082;28;20062;-80
2023/04/15 01:07:13;;;;;;;4.75;3.90;;;;;;;9.84;57.28;99154.00;4989795;28;20066;-81
2023/04/15 01:09:40;;;;;;;7.80;4.55;;;;;;;9.82;57.41;99151.47;4973040;28;20465;-81
2023/04/15 01:12:10;;;;;;;4.03;3.53;;;;;;;9.80;57.47;99148.09;4990093;28;20054;-81
2023/04/15 01:14:37;;;;;;;4.53;3.88;;;;;;;9.81;57.41;99160.28;4990445;28;20058;-81
2023/04/15 01:17:04;;;;;;;7.07;4.07;;;;;;;9.80;57.46;99149.88;4989768;28;20417;-81
2023/04/15 01:19:30;;;;;;;8.23;3.78;;;;;;;9.80;57.70;99160.38;4990005;28;20539;-81
2023/04/15 01:21:57;;;;;;;5.07;3.63;;;;;;;9.77;57.63;99159.63;4990111;28;20150;-81
2023/04/15 01:24:26;;;;;;;4.25;3.83;;;;;;;9.76;57.50;99159.75;4990001;28;20065;-81
2023/04/15 01:26:52;;;;;;;6.82;4.22;;;;;;;9.75;57.64;99169.41;4989652;28;20416;-81
2023/04/15 01:29:19;;;;;;;6.00;4.35;;;;;;;9.73;57.61;99152.91;4988655;28;20112;-81
2023/04/15 01:31:53;;;;;;;7.35;4.93;;;;;;;9.70;58.09;99160.97;4990257;28;20066;-81
2023/04/15 01:34:21;;;;;;;7.70;4.75;;;;;;;9.72;57.90;99161.69;4990122;28;20050;-81
2023/04/15 01:36:47;;;;;;;6.22;4.75;;;;;;;9.72;58.01;99160.88;4982968;28;20058;-81
2023/04/15 01:39:14;;;;;;;5.40;4.00;;;;;;;9.72;58.00;99163.50;4989723;28;20051;-81
2023/04/15 01:41:41;;;;;;;8.43;4.78;;;;;;;9.71;58.17;99160.03;4964280;28;20493;-81
2023/04/15 01:44:07;;;;;;;5.88;4.65;;;;;;;9.73;57.85;99157.31;4989898;28;20559;-81
2023/04/15 01:46:34;;;;;;;5.07;4.57;;;;;;;9.72;57.99;99160.88;4989292;28;20058;-81
2023/04/15 01:49:01;;;;;;;8.77;4.68;;;;;;;9.71;57.81;99165.28;4972945;28;20499;-81
2023/04/15 01:51:28;;;;;;;5.82;4.25;;;;;;;9.69;57.89;99166.31;4989576;28;20497;-81
2023/04/15 01:53:55;;;;;;;6.70;5.45;;;;;;;9.68;58.00;99159.38;4990054;28;20058;-81
2023/04/15 01:56:25;;;;;;;6.97;5.82;;;;;;;9.65;58.07;99163.88;4972239;28;20066;-81
2023/04/15 01:58:51;;;;;;;9.05;5.90;;;;;;;9.63;58.15;99165.78;4971961;28;20050;-81
2023/04/15 02:01:18;;;;;;;7.75;5.25;;;;;;;9.61;57.95;99164.19;4990180;28;20078;-81
2023/04/15 02:03:46;;;;;;;6.70;5.40;;;;;;;9.59;58.30;99163.41;4972845;28;20124;-81
2023/04/15 02:06:13;;;;;;;8.68;5.57;;;;;;;9.57;58.23;99162.69;4972238;28;20062;-81
2023/04/15 02:08:39;;;;;;;6.10;5.32;;;;;;;9.55;58.28;99165.41;4973841;28;20054;-81
2023/04/15 02:11:06;;;;;;;8.43;5.82;;;;;;;9.52;58.42;99166.44;4976282;28;20058;-81
2023/04/15 02:13:32;;;;;;;6.18;5.38;;;;;;;9.52;58.50;99166.44;4993587;28;20137;-81
2023/04/15 02:15:58;;;;;;;7.55;5.80;;;;;;;9.51;58.44;99164.75;4975573;28;20085;-81
2023/04/15 02:18:25;;;;;;;7.80;5.95;;;;;;;9.49;58.77;99171.88;4992715;28;20149;-81
2023/04/15 02:20:51;;;;;;;8.05;6.38;;;;;;;9.48;58.60;99164.94;4993276;28;20141;-81
2023/04/15 02:23:18;;;;;;;8.48;5.70;;;;;;;9.48;58.92;99164.94;4993353;28;20058;-81
2023/04/15 02:25:44;;;;;;;9.35;6.50;;;;;;;9.47;58.86;99165.88;4992915;28;20112;-80
2023/04/15 02:28:20;;;;;;;7.28;5.25;;;;;;;9.46;58.79;99166.81;4976714;28;20129;-81
2023/04/15 02:30:51;;;;;;;7.15;5.28;;;;;;;9.45;58.75;99177.41;4993235;28;20058;-80
2023/04/15 02:33:18;;;;;;;6.60;5.63;;;;;;;9.44;58.90;99180.97;4992932;28;20498;-81
2023/04/15 02:35:44;;;;;;;8.13;6.15;;;;;;;9.43;58.82;99187.19;4975308;28;20081;-81
2023/04/15 02:38:11;;;;;;;8.05;6.07;;;;;;;9.41;58.99;99189.06;4975139;28;20054;-81
2023/04/15 02:40:37;;;;;;;8.35;6.63;;;;;;;9.39;58.88;99186.53;4975343;28;20401;-81
2023/04/15 02:43:05;;;;;;;7.75;6.28;;;;;;;9.38;59.22;99192.69;4975513;28;20061;-81
2023/04/15 02:45:32;;;;;;;8.48;6.25;;;;;;;9.36;59.11;99190.19;4975097;28;20429;-81
2023/04/15 02:48:02;;;;;;;8.43;6.43;;;;;;;9.34;59.20;99199.06;4992163;28;20520;-81
2023/04/15 02:50:30;;;;;;;7.53;6.35;;;;;;;9.33;59.36;99200.03;4992845;28;20058;-81
2023/04/15 02:52:56;;;;;;;7.63;5.82;;;;;;;9.31;59.20;99200.09;4992630;28;20094;-81
2023/04/15 02:55:23;;;;;;;7.63;6.55;;;;;;;9.30;59.24;99198.44;4975292;28;20094;-81
2023/04/15 02:57:49;;;;;;;8.27;6.68;;;;;;;9.29;59.45;99201.16;4992148;28;20054;-81
2023/04/15 03:00:15;;;;;;;7.90;6.53;;;;;;;9.27;59.37;99195.97;4992283;28;20124;-81
2023/04/15 03:02:44;;;;;;;8.43;6.82;;;;;;;9.26;59.63;99199.56;4992571;28;20132;-81
2023/04/15 03:05:12;;;;;;;11.57;6.95;;;;;;;9.25;59.49;99198.72;4992349;28;20058;-81
2023/04/15 03:07:41;;;;;;;6.78;5.60;;;;;;;9.24;59.33;99196.19;4991867;28;20448;-81
2023/04/15 03:10:09;;;;;;;8.45;6.50;;;;;;;9.21;59.17;99184.09;4992389;28;20132;-81
2023/04/15 03:12:35;;;;;;;8.02;5.93;;;;;;;9.19;59.52;99188.56;4992425;28;20054;-80
2023/04/15 03:15:02;;;;;;;8.80;6.38;;;;;;;9.17;59.54;99194.84;4991994;28;20089;-80
2023/04/15 03:17:28;;;;;;;8.65;6.45;;;;;;;9.13;59.73;99195.03;4991935;28;20074;-80
2023/04/15 03:19:55;;;;;;;9.48;6.22;;;;;;;9.11;59.77;99186.41;4991924;28;20064;-80
2023/04/15 03:22:21;;;;;;;8.35;6.22;;;;;;;9.08;59.55;99186.59;4991953;28;20058;-80
2023/04/15 03:24:48;;;;;;;8.55;6.60;;;;;;;9.08;59.97;99185.78;4992024;28;20089;-80
2023/04/15 03:27:14;;;;;;;9.15;6.38;;;;;;;9.05;59.57;99188.56;4991313;28;20058;-81
2023/04/15 03:29:40;;;;;;;11.65;7.25;;;;;;;9.03;59.67;99182.56;4991710;28;20086;-81
2023/04/15 03:32:06;;;;;;;8.20;6.82;;;;;;;9.01;59.87;99184.44;4992084;28;20081;-81
2023/04/15 03:34:33;;;;;;;8.13;6.65;;;;;;;8.97;59.56;99182.00;4992030;28;20124;-80
2023/04/15 03:36:59;;;;;;;8.48;6.72;;;;;;;8.95;59.75;99185.66;4991186;28;20275;-80
2023/04/15 03:39:26;;;;;;;9.27;7.07;;;;;;;8.92;59.91;99184.06;4991578;28;20054;-80
2023/04/15 03:41:52;;;;;;;9.43;6.95;;;;;;;8.88;59.61;99179.91;4991399;28;20089;-80
2023/04/15 03:44:19;;;;;;;9.85;7.43;;;;;;;8.85;59.92;99185.34;4991830;28;20089;-80
2023/04/15 03:46:45;;;;;;;9.30;7.32;;;;;;;8.80;59.79;99180.38;4973752;28;20058;-80
2023/04/15 03:49:13;;;;;;;9.80;7.30;;;;;;;8.78;59.95;99186.66;4991584;28;20112;-80
2023/04/15 03:51:39;;;;;;;9.30;6.88;;;;;;;8.75;59.98;99181.56;4974307;28;20054;-80
2023/04/15 03:54:05;;;;;;;9.18;7.70;;;;;;;8.71;60.12;99173.06;4974144;28;20058;-80
2023/04/15 03:56:32;;;;;;;9.63;7.22;;;;;;;8.69;60.23;99180.16;4990872;28;20505;-80
2023/04/15 03:58:59;;;;;;;8.10;6.78;;;;;;;8.67;60.45;99180.25;4991409;28;20058;-80
2023/04/15 04:01:26;;;;;;;9.88;7.68;;;;;;;8.66;60.22;99185.56;4991436;28;20082;-80
2023/04/15 04:03:52;;;;;;;8.88;7.47;;;;;;;8.63;60.44;99186.59;4991375;28;20093;-80
2023/04/15 04:06:19;;;;;;;13.95;8.38;;;;;;;8.64;60.76;99179.59;4973920;28;20135;-80
2023/04/15 04:08:45;;;;;;;10.13;7.55;;;;;;;8.62;60.88;99184.06;4973452;28;20062;-80
2023/04/15 04:11:12;;;;;;;12.10;7.47;;;;;;;8.62;60.58;99177.03;4991446;28;20059;-80
2023/04/15 04:13:38;;;;;;;14.63;9.18;;;;;;;8.62;61.19;99177.03;4991233;28;20513;-80
2023/04/15 04:16:05;;;;;;;11.15;8.07;;;;;;;8.62;60.77;99182.28;4973366;28;20516;-80
2023/04/15 04:18:31;;;;;;;12.32;8.13;;;;;;;8.63;60.86;99177.91;4990789;28;20055;-80
2023/04/15 04:20:58;;;;;;;12.45;9.52;;;;;;;8.63;61.12;99175.28;4990842;28;20497;-80
2023/04/15 04:23:26;;;;;;;10.70;8.73;;;;;;;8.63;60.97;99183.97;4990789;28;20522;-80
2023/04/15 04:25:52;;;;;;;12.40;8.27;;;;;;;8.65;61.15;99183.88;4991098;28;20093;-80
2023/04/15 04:30:57;;;;;;;11.48;7.85;;;;;;;8.66;61.01;99185.56;4995517;23;20423;-79
2023/04/15 04:33:23;;;;;;;10.68;8.40;;;;;;;8.66;60.79;99196.91;4974216;28;20058;-77
2023/04/15 04:35:50;;;;;;;13.82;8.32;;;;;;;8.67;61.03;99200.41;4990267;28;20054;-80
2023/04/15 04:38:16;;;;;;;12.63;9.02;;;;;;;8.66;60.73;99201.31;4991414;28;20165;-78
2023/04/15 04:40:43;;;;;;;13.73;8.85;;;;;;;8.66;60.75;99204.78;4991632;28;20065;-79
2023/04/15 04:43:09;;;;;;;13.10;8.90;;;;;;;8.66;60.94;99211.81;4991547;28;20069;-80
2023/04/15 04:45:36;;;;;;;12.38;9.07;;;;;;;8.64;60.98;99216.31;4991263;28;20080;-79
2023/04/15 04:48:05;;;;;;;13.32;9.27;;;;;;;8.64;61.19;99213.69;4991367;28;20050;-79
2023/04/15 04:50:33;;;;;;;11.38;8.15;;;;;;;8.64;61.17;99222.41;4991405;28;20054;-78
2023/04/15 04:53:00;;;;;;;10.27;8.55;;;;;;;8.63;61.22;99225.13;4991446;28;20626;-78
2023/04/15 04:55:28;;;;;;;12.73;8.38;;;;;;;8.64;60.81;99226.81;4990909;28;20499;-79
2023/04/15 04:57:54;;;;;;;11.32;9.02;;;;;;;8.63;61.14;99223.34;4991251;28;20060;-78
2023/04/15 05:00:21;;;;;;;13.82;8.63;;;;;;;8.62;61.29;99220.78;4990340;28;20384;-78
2023/04/15 05:02:48;;;;;;;14.38;8.82;;;;;;;8.62;61.35;99236.53;4991449;28;20050;-80
2023/04/15 05:05:15;;;;;;;11.95;8.95;;;;;;;8.59;61.27;99230.53;4989061;28;20050;-80
2023/04/15 05:07:41;;;;;;;11.73;8.43;;;;;;;8.60;61.22;99234.03;4990078;28;20081;-77
2023/04/15 05:10:08;;;;;;;15.07;9.38;;;;;;;8.60;61.74;99237.47;4990446;28;20058;-79
2023/04/15 05:12:36;;;;;;;12.90;9.43;;;;;;;8.60;61.49;99245.34;4990595;28;20062;-76
2023/04/15 05:15:03;;;;;;;13.95;9.32;;;;;;;8.62;61.77;99233.91;4990040;28;20068;-79
2023/04/15 05:17:32;;;;;;;12.05;9.63;;;;;;;8.63;61.62;99240.88;4990931;28;20470;-80
2023/04/15 05:19:58;;;;;;;11.98;9.35;;;;;;;8.65;61.83;99244.22;4991092;28;20046;-78
2023/04/15 05:22:25;;;;;;;13.10;9.77;;;;;;;8.68;62.01;99247.50;4973787;28;20155;-78
2023/04/15 05:24:52;;;;;;;16.08;9.07;;;;;;;8.71;62.10;99251.78;4991187;28;20089;-78
2023/04/15 05:27:18;;;;;;;14.18;10.25;;;;;;;8.76;61.63;99251.50;4990885;28;20414;-78
2023/04/15 05:29:45;;;;;;;13.48;9.77;;;;;;;8.79;61.81;99252.16;4991098;28;20554;-78
2023/04/15 05:32:12;;;;;;;13.88;10.27;;;;;;;8.82;61.72;99259.84;4991254;28;20059;-79
2023/04/15 05:34:39;;;;;;;14.00;10.05;;;;;;;8.86;61.93;99257.91;4973658;28;20499;-79
2023/04/15 05:37:05;;;;;;;13.43;9.75;;;;;;;8.89;62.27;99260.34;4990258;28;20665;-77
2023/04/15 05:39:32;;;;;;;14.65;10.45;;;;;;;8.94;62.16;99260.09;4990785;28;20583;-79
2023/04/15 05:41:59;;;;;;;13.43;10.00;;;;;;;8.97;62.27;99257.28;4991911;28;20050;-80
2023/04/15 05:44:26;;;;;;;14.75;10.70;;;;;;;9.01;62.19;99266.66;4993490;28;20054;-78
2023/04/15 05:46:52;;;;;;;17.67;11.65;;;;;;;9.05;62.10;99262.09;4994174;28;20412;-79
2023/04/15 05:49:19;;;;;;;14.15;10.50;;;;;;;9.08;62.06;99273.25;4977421;28;20058;-80
2023/04/15 05:51:47;;;;;;;14.98;11.15;;;;;;;9.12;62.15;99273.91;4994595;28;20137;-79
2023/04/15 05:54:13;;;;;;;14.32;11.45;;;;;;;9.15;62.24;99276.34;4995202;28;20117;-79
2023/04/15 05:56:40;;;;;;;16.35;10.70;;;;;;;9.19;62.07;99283.09;4992767;28;20050;-79
2023/04/15 05:59:07;;;;;;;14.13;10.77;;;;;;;9.20;62.15;99282.16;4994786;28;20060;-77
2023/04/15 06:01:34;;;;;;;16.38;11.38;;;;;;;9.23;62.26;99283.75;4993794;28;20558;-78
2023/04/15 06:04:00;;;;;;;14.38;11.05;;;;;;;9.25;62.39;99282.75;4994513;28;20061;-80
2023/04/15 06:06:27;;;;;;;18.30;12.35;;;;;;;9.29;62.32;99288.66;4993670;28;20050;-79
2023/04/15 06:08:54;;;;;;;18.83;12.23;;;;;;;9.33;62.17;99287.56;4993910;28;20054;-79
2023/04/15 06:11:21;;;;;;;16.52;11.70;;;;;;;9.36;62.52;99290.00;4984596;28;20053;-79
2023/04/15 06:13:48;;;;;;;15.85;12.35;;;;;;;9.39;62.58;99292.44;4992897;28;20085;-77
2023/04/15 06:16:14;;;;;;;15.90;11.25;;;;;;;9.44;62.57;99294.78;4992299;28;20137;-79
2023/04/15 06:18:41;;;;;;;15.30;11.73;;;;;;;9.46;62.28;99295.53;4991267;28;20066;-80
2023/04/15 06:21:07;;;;;;;13.98;11.10;;;;;;;9.48;62.43;99293.69;4992560;28;20502;-80
2023/04/15 06:23:35;;;;;;;20.25;12.30;;;;;;;9.52;62.86;99304.84;4992931;28;20042;-80
2023/04/15 06:26:02;;;;;;;15.60;11.57;;;;;;;9.56;62.20;99294.97;4991897;28;20053;-79
2023/04/15 06:28:29;;;;;;;14.15;10.85;;;;;;;9.59;62.49;99294.78;4993936;28;20451;-80
2023/04/15 06:30:55;;;;;;;16.73;12.55;;;;;;;9.63;62.42;99293.69;4993902;28;20058;-80
2023/04/15 06:33:22;;;;;;;14.15;10.25;;;;;;;9.68;62.50;99302.13;4994068;28;20097;-80
2023/04/15 06:35:49;;;;;;;15.23;10.85;;;;;;;9.71;62.65;99299.31;4993908;28;20058;-78
2023/04/15 06:38:15;;;;;;;13.95;10.57;;;;;;;9.77;62.47;99305.97;5008832;28;20492;-78
2023/04/15 06:40:42;;;;;;;15.07;11.05;;;;;;;9.81;62.47;99310.13;4993958;28;20054;-80
2023/04/15 06:43:09;;;;;;;15.68;10.88;;;;;;;9.84;62.55;99317.81;4993970;28;20137;-79
2023/04/15 06:45:35;;;;;;;16.10;11.73;;;;;;;9.88;62.50;99319.28;4991369;28;20050;-77
2023/04/15 06:48:02;;;;;;;13.50;11.18;;;;;;;9.91;62.47;99310.41;4992931;28;20072;-80
2023/04/15 06:50:28;;;;;;;16.23;11.90;;;;;;;9.94;62.41;99306.75;4992190;28;20051;-80
2023/04/15 06:52:56;;;;;;;14.77;10.93;;;;;;;9.98;62.18;99313.50;4993885;28;20086;-79
2023/04/15 06:55:22;;;;;;;15.35;11.63;;;;;;;10.00;62.52;99315.09;4991638;28;20589;-80
2023/04/15 06:57:49;;;;;;;13.73;10.27;;;;;;;10.03;62.47;99317.50;4993992;28;20494;-80
2023/04/15 07:00:16;;;;;;;14.65;11.40;;;;;;;10.07;62.40;99317.34;4993436;28;20133;-80
2023/04/15 07:02:43;;;;;;;13.82;10.48;;;;;;;10.10;62.65;99317.16;4993613;28;20062;-78
2023/04/15 07:05:10;;;;;;;15.38;10.60;;;;;;;10.12;62.47;99308.22;4993481;28;20055;-79
2023/04/15 07:07:37;;;;;;;14.40;11.18;;;;;;;10.15;62.31;99310.66;4993218;28;20098;-79
2023/04/15 07:10:14;;;;;;;14.15;11.02;;;;;;;10.13;62.56;99312.53;4992187;28;20109;-80
2023/04/15 07:12:42;;;;;;;18.35;11.93;;;;;;;10.21;62.49;99313.84;4979706;28;20089;-79
2023/04/15 07:15:09;;;;;;;14.45;10.65;;;;;;;10.23;62.50;99307.53;4993174;28;20049;-79
2023/04/15 07:17:36;;;;;;;14.40;10.77;;;;;;;10.25;62.48;99310.91;4991718;28;20504;-80
2023/04/15 07:20:03;;;;;;;13.82;11.25;;;;;;;10.27;62.60;99311.69;4993109;28;20058;-79
2023/04/15 07:22:30;;;;;;;16.35;11.60;;;;;;;10.30;62.57;99315.91;4991815;28;20058;-79
2023/04/15 07:25:00;;;;;;;15.02;10.35;;;;;;;10.31;62.78;99314.94;4974534;28;20050;-79
2023/04/15 07:27:26;;;;;;;14.95;10.75;;;;;;;10.36;62.68;99314.66;4992814;28;20050;-79
2023/04/15 07:29:53;;;;;;;13.40;10.52;;;;;;;10.39;62.72;99314.47;4993065;28;20058;-80
2023/04/15 07:32:20;;;;;;;14.30;10.73;;;;;;;10.41;62.49;99312.59;4985685;28;20133;-79
2023/04/15 07:34:46;;;;;;;13.55;10.68;;;;;;;10.41;62.76;99316.06;4976382;28;20058;-80
2023/04/15 07:37:13;;;;;;;12.55;10.05;;;;;;;10.43;62.71;99311.53;4989102;28;20050;-79
2023/04/15 07:39:40;;;;;;;13.82;10.55;;;;;;;10.46;62.79;99313.16;4988215;28;20053;-79
2023/04/15 07:42:07;;;;;;;13.45;10.57;;;;;;;10.48;62.94;99315.69;4992399;28;20141;-79
2023/04/15 07:44:36;;;;;;;14.75;11.13;;;;;;;10.50;62.92;99319.91;4992751;28;20100;-78
2023/04/15 07:47:03;;;;;;;14.25;11.15;;;;;;;10.53;63.03;99318.88;4991886;28;20058;-79
2023/04/15 07:49:30;;;;;;;16.50;10.75;;;;;;;10.56;62.97;99316.06;4992777;28;20090;-79
2023/04/15 07:51:58;;;;;;;16.88;10.95;;;;;;;10.58;63.01;99326.50;4992644;28;20141;-79
2023/04/15 07:54:26;;;;;;;18.77;12.50;;;;;;;10.60;63.02;99320.19;4975397;28;20050;-80
2023/04/15 07:56:53;;;;;;;20.10;12.68;;;;;;;10.61;63.05;99321.88;4991929;28;20720;-80
2023/04/15 07:59:20;;;;;;;19.00;12.55;;;;;;;10.62;63.13;99322.72;4992483;28;20058;-80
2023/04/15 08:01:47;;;;;;;19.40;12.90;;;;;;;10.64;63.21;99332.19;4992289;28;20496;-80
2023/04/15 08:04:13;;;;;;;19.00;11.90;;;;;;;10.66;63.34;99326.84;4992234;28;20054;-78
2023/04/15 08:06:40;;;;;;;15.05;11.73;;;;;;;10.68;63.35;99328.44;4990068;28;20042;-80
2023/04/15 08:09:07;;;;;;;15.23;11.35;;;;;;;10.69;63.14;99335.38;4992148;28;20559;-80
2023/04/15 08:11:33;;;;;;;16.30;11.50;;;;;;;10.71;63.30;99332.66;4992440;28;20141;-80
2023/04/15 08:14:00;;;;;;;15.95;12.13;;;;;;;10.73;63.26;99336.00;4992319;28;20058;-79
2023/04/15 08:16:27;;;;;;;15.40;10.95;;;;;;;10.74;63.42;99336.88;4992183;28;20104;-79
2023/04/15 08:18:55;;;;;;;14.73;11.23;;;;;;;10.74;63.49;99340.34;4991760;28;20054;-79
2023/04/15 08:21:22;;;;;;;16.58;10.93;;;;;;;10.77;63.57;99341.94;4991986;28;20105;-79
2023/04/15 08:23:55;;;;;;;14.55;10.55;;;;;;;10.75;63.64;99338.56;4991851;28;20145;-80
2023/04/15 08:26:22;;;;;;;14.43;10.32;;;;;;;10.81;63.64;99348.69;4974268;28;20064;-78
2023/04/15 08:28:48;;;;;;;12.60;10.02;;;;;;;10.81;63.50;99349.53;4991514;28;20149;-78
2023/04/15 08:31:16;;;;;;;14.48;9.30;;;;;;;10.84;63.81;99350.28;4991920;28;20060;-79
2023/04/15 08:33:43;;;;;;;13.65;10.18;;;;;;;10.86;64.01;99351.88;4991746;28;20062;-80
2023/04/15 08:36:09;;;;;;;13.75;9.80;;;;;;;10.90;63.89;99356.00;4991343;28;20054;-80
2023/04/15 08:38:36;;;;;;;15.32;9.95;;;;;;;10.91;63.83;99351.56;4991181;28;20054;-79
2023/04/15 08:41:07;;;;;;;14.30;9.45;;;;;;;10.92;64.12;99350.63;4991028;28;20093;-79
2023/04/15 08:43:38;;;;;;;12.02;9.05;;;;;;;10.94;63.91;99351.38;4974397;28;20061;-79
2023/04/15 08:46:06;;;;;;;12.93;9.57;;;;;;;10.97;64.09;99356.44;4991356;28;20055;-80
2023/04/15 08:48:34;;;;;;;10.98;8.70;;;;;;;10.98;64.09;99358.13;4991156;28;20569;-79
2023/04/15 08:51:01;;;;;;;11.63;8.63;;;;;;;11.01;64.14;99363.19;4991529;28;20458;-80
2023/04/15 08:53:29;;;;;;;11.93;8.48;;;;;;;11.05;64.32;99356.78;4991648;28;20095;-80
2023/04/15 08:55:58;;;;;;;12.30;8.15;;;;;;;11.10;64.43;99363.53;4991236;28;20109;-80
2023/04/15 08:58:25;;;;;;;11.48;7.65;;;;;;;11.14;64.47;99362.41;4991070;28;20054;-80
2023/04/15 09:00:52;;;;;;;12.25;8.82;;;;;;;11.15;64.36;99364.94;4991457;28;20144;-80
2023/04/15 09:03:21;;;;;;;9.15;7.63;;;;;;;11.19;64.38;99360.31;4991315;28;20549;-79
2023/04/15 09:05:49;;;;;;;11.90;7.28;;;;;;;11.22;64.49;99368.00;4991136;28;20054;-80
2023/04/15 09:08:18;;;;;;;9.77;7.43;;;;;;;11.25;64.46;99372.22;4990966;28;20590;-78
2023/04/15 09:10:45;;;;;;;9.43;7.38;;;;;;;11.27;64.69;99375.59;4973982;28;20499;-79
2023/04/15 09:13:12;;;;;;;10.23;7.30;;;;;;;11.32;64.72;99378.75;4991277;28;20086;-80
2023/04/15 09:15:39;;;;;;;9.95;6.78;;;;;;;11.33;64.75;99386.56;4990760;28;20062;-79
2023/04/15 09:18:05;;;;;;;7.88;6.32;;;;;;;11.36;64.72;99382.88;4973123;28;20142;-79
2023/04/15 09:20:41;;;;;;;8.10;6.35;;;;;;;11.35;64.91;99373.28;4991284;28;20090;-80
2023/04/15 09:23:12;;;;;;;9.10;6.57;;;;;;;11.38;64.69;99380.16;4991116;28;20570;-80
2023/04/15 09:25:44;;;;;;;8.25;6.35;;;;;;;11.41;64.50;99395.78;4973472;28;20141;-78
2023/04/15 09:28:10;;;;;;;6.28;5.43;;;;;;;11.40;64.63;99381.72;4990843;28;20050;-80
2023/04/15 09:30:37;;;;;;;7.03;5.47;;;;;;;11.40;64.85;99394.09;4991483;28;20050;-80
2023/04/15 09:33:07;;;;;;;7.05;5.60;;;;;;;11.43;64.82;99396.50;4991370;28;20058;-79
2023/04/15 09:35:35;;;;;;;7.82;6.30;;;;;;;11.44;65.07;99390.31;4990641;28;20065;-80
2023/04/15 09:38:04;;;;;;;9.75;6.15;;;;;;;11.47;64.91;99395.34;4973535;28;20081;-78
2023/04/15 09:40:36;;;;;;;6.55;5.38;;;;;;;11.49;65.08;99401.38;4991339;28;20165;-79
2023/04/15 09:43:04;;;;;;;7.30;5.07;;;;;;;11.53;65.36;99408.13;4973737;28;20148;-80
2023/04/15 09:45:35;;;;;;;6.38;5.32;;;;;;;11.54;65.45;99404.53;4990746;28;20065;-79
2023/04/15 09:48:31;;;;;;;6.55;5.10;;;;;;;11.55;65.42;99403.59;4991019;28;20081;-79
2023/04/15 09:51:01;;;;;;;7.65;5.47;;;;;;;11.62;65.05;99405.84;4990914;28;20054;-79
2023/04/15 09:53:28;;;;;;;7.38;6.00;;;;;;;11.64;64.95;99406.56;4990937;28;20663;-79
2023/04/15 09:56:02;;;;;;;7.35;5.63;;;;;;;11.65;64.80;99406.47;4990826;28;20054;-78
2023/04/15 09:58:32;;;;;;;8.55;6.10;;;;;;;11.66;65.12;99413.41;4990856;28;20089;-79
2023/04/15 10:01:00;;;;;;;7.70;6.10;;;;;;;11.68;65.06;99413.31;4990908;28;20141;-79
2023/04/15 10:03:30;;;;;;;7.43;6.07;;;;;;;11.68;65.09;99416.81;4991013;28;20442;-79
2023/04/15 10:06:05;;;;;;;8.35;5.30;;;;;;;11.69;65.12;99409.72;4990437;28;20120;-78
2023/04/15 10:08:33;;;;;;;7.30;4.63;;;;;;;11.68;64.96;99416.81;4990912;28;20078;-78
2023/04/15 10:11:10;;;;;;;6.07;4.78;;;;;;;11.67;65.15;99409.00;4990782;28;20137;-78
2023/04/15 10:13:38;;;;;;;6.38;4.57;;;;;;;11.68;64.91;99415.94;4991008;28;20058;-78
2023/04/15 10:16:19;;;;;;;6.15;4.50;;;;;;;11.66;65.19;99399.41;4973142;28;20141;-78
2023/04/15 10:18:50;;;;;;;6.82;4.70;;;;;;;11.67;65.23;99414.28;4990599;28;20093;-79
2023/04/15 10:21:17;;;;;;;8.00;5.15;;;;;;;11.67;65.45;99419.53;4973477;28;20061;-77
2023/04/15 10:23:44;;;;;;;5.97;4.95;;;;;;;11.68;65.53;99413.31;4973337;28;20558;-79
2023/04/15 10:26:13;;;;;;;7.00;4.95;;;;;;;11.68;65.47;99416.81;4990043;28;20053;-80
2023/04/15 10:28:40;;;;;;;7.22;4.80;;;;;;;11.71;65.66;99418.38;4973400;28;20054;-79
2023/04/15 10:31:11;;;;;;;5.90;4.40;;;;;;;11.71;65.71;99421.84;5126823;23;20064;-82
2023/04/15 10:33:38;;;;;;;6.50;4.30;;;;;;;11.75;65.81;99421.66;4991920;28;20483;-81
2023/04/15 10:36:06;;;;;;;5.28;4.05;;;;;;;11.75;65.87;99417.25;4992502;28;20137;-81
2023/04/15 10:38:41;;;;;;;4.43;3.92;;;;;;;11.78;65.82;99418.81;4992633;28;20560;-81
2023/04/15 10:41:25;;;;;;;4.90;3.90;;;;;;;11.76;65.88;99424.19;4991817;28;20100;-82
2023/04/15 10:43:54;;;;;;;4.30;3.67;;;;;;;11.83;65.67;99430.75;4975642;28;20505;-82
2023/04/15 10:46:36;;;;;;;4.70;3.85;;;;;;;11.83;66.21;99430.75;4992602;28;20065;-81
2023/04/15 10:49:11;;;;;;;5.28;3.88;;;;;;;11.87;66.14;99420.81;4991676;28;20062;-82
2023/04/15 10:51:41;;;;;;;4.28;3.83;;;;;;;11.91;65.86;99432.00;4992718;28;20081;-82
2023/04/15 10:54:13;;;;;;;5.63;3.85;;;;;;;11.92;65.93;99423.16;4992749;28;20054;-82
2023/04/15 10:56:51;;;;;;;4.20;3.70;;;;;;;11.92;66.35;99433.72;4991978;28;20073;-82
2023/04/15 10:59:17;;;;;;;7.28;4.10;;;;;;;11.99;65.84;99434.97;4992605;28;20065;-82
2023/04/15 11:01:58;;;;;;;3.97;3.53;;;;;;;11.96;65.77;99433.38;4991334;28;20406;-82
2023/04/15 11:04:57;;;;;;;8.00;4.18;;;;;;;11.95;65.77;99433.50;4992471;28;20120;-81
2023/04/15 11:07:46;;;;;;;5.00;3.53;;;;;;;11.97;65.88;99431.59;4992048;28;20050;-81
2023/04/15 11:10:12;;;;;;;4.47;3.10;;;;;;;12.01;65.71;99434.88;4992372;28;20062;-81
2023/04/15 11:12:39;;;;;;;4.72;3.70;;;;;;;12.00;65.86;99439.28;4992264;28;20504;-82
2023/04/15 11:15:31;;;;;;;4.72;3.22;;;;;;;11.97;66.00;99439.53;4991947;28;20066;-82
2023/04/15 11:18:07;;;;;;;5.00;3.40;;;;;;;12.02;65.79;99440.03;4991939;28;20143;-82
2023/04/15 11:20:34;;;;;;;4.07;3.33;;;;;;;12.01;65.79;99438.38;4975024;28;20093;-82
2023/04/15 11:23:00;;;;;;;5.05;3.60;;;;;;;12.01;65.81;99441.00;4992033;28;20105;-82
2023/04/15 11:25:41;;;;;;;3.90;2.92;;;;;;;12.01;65.89;99445.41;4991966;28;20079;-81
2023/04/15 11:28:08;;;;;;;4.32;3.88;;;;;;;12.01;65.95;99450.69;4992014;28;20098;-82
2023/04/15 11:30:36;;;;;;;4.93;3.80;;;;;;;12.02;66.12;99455.88;4992014;28;20058;-82
2023/04/15 11:33:05;;;;;;;3.33;3.03;;;;;;;12.01;66.14;99455.97;4991777;28;20069;-81
2023/04/15 11:35:32;;;;;;;4.68;3.25;;;;;;;12.03;66.17;99457.56;4991341;28;20476;-81
2023/04/15 11:38:13;;;;;;;4.78;3.03;;;;;;;12.02;66.31;99455.88;4991479;28;20069;-81